Hoopers Valley, New York
Current Conditions -  °F | °C
As of 10:53 PM on Wednesday 22 Oct 2014 (Local Time) from KBGM Reporting Station
Overcast Overcast  
Wind Chill: 37°   Ceiling: 600
Heat Index: 44°   Visibility: 10mi
Dew Point: 42°   Wind: 15mph
Humidity: 93%   Direction: 340°NNW
Pressure: 30"   Gusts: 25mph
Location:  42.0389°N, 76.3138°W
Report Text: KBGM 230253Z 34013G22KT 10SM OVC006 07/06 A3000 RMK AO2 RAE24 CIG 004V009 SLP166 P0000 60002 T00670056 58004
Loading
Personal Weather Stations






























Interactive Weather Map New forecast layout! Learn more

10-Day Weather Forecast

Advertisements
Track Severe Weather on mobile